createdAt,value
2019-03-31T00:02:02.754Z,26.60
2019-03-31T00:04:45.624Z,27.13
2019-03-31T00:07:16.450Z,25.90
2019-03-31T00:09:47.262Z,25.60
2019-03-31T00:12:18.967Z,27.43
2019-03-31T00:14:49.797Z,25.47
2019-03-31T00:17:20.529Z,28.20
2019-03-31T00:19:51.350Z,26.97
2019-03-31T00:22:22.144Z,27.60
2019-03-31T00:24:53.616Z,29.60
2019-03-31T00:27:24.749Z,30.00
2019-03-31T00:29:55.845Z,29.83
2019-03-31T00:32:26.882Z,29.67
2019-03-31T00:34:58.812Z,29.90
2019-03-31T00:37:41.845Z,29.37
2019-03-31T00:40:12.908Z,28.30
2019-03-31T00:42:43.613Z,29.73
2019-03-31T00:45:14.406Z,31.73
2019-03-31T00:47:45.150Z,32.40
2019-03-31T00:50:16.264Z,31.30
2019-03-31T00:52:47.915Z,31.10
2019-03-31T00:55:18.694Z,30.67
2019-03-31T00:57:49.674Z,29.77
2019-03-31T01:00:41.576Z,31.07
2019-03-31T01:03:12.596Z,30.13
2019-03-31T01:05:45.251Z,31.70
2019-03-31T01:08:16.644Z,31.40
2019-03-31T01:10:48.348Z,33.40
2019-03-31T01:13:19.777Z,32.27
2019-03-31T01:15:51.461Z,32.80
2019-03-31T01:18:22.959Z,32.87
2019-03-31T01:20:54.288Z,32.10
2019-03-31T01:23:25.022Z,31.47
2019-03-31T01:25:56.864Z,32.67
2019-03-31T01:28:28.367Z,31.60
2019-03-31T01:31:00.678Z,33.13
2019-03-31T01:33:32.330Z,33.87
2019-03-31T01:36:03.228Z,34.70
2019-03-31T01:38:34.323Z,36.13
2019-03-31T01:41:05.356Z,34.87
2019-03-31T01:43:36.463Z,33.70
2019-03-31T01:46:09.223Z,35.47
2019-03-31T01:48:40.397Z,36.20
2019-03-31T01:51:11.356Z,36.70
2019-03-31T01:53:42.107Z,34.93
2019-03-31T01:56:13.212Z,35.83
2019-03-31T01:58:44.259Z,36.50
2019-03-31T02:01:16.451Z,37.40
2019-03-31T02:03:47.894Z,38.30
2019-03-31T02:06:18.642Z,38.60
2019-03-31T02:08:49.747Z,39.20
2019-03-31T02:11:20.486Z,43.27
2019-03-31T02:13:51.525Z,42.23
2019-03-31T02:16:22.607Z,42.30
2019-03-31T02:18:53.643Z,44.93
2019-03-31T02:21:24.673Z,42.57
2019-03-31T02:23:55.980Z,42.43
2019-03-31T02:26:26.739Z,46.97
2019-03-31T02:28:57.563Z,43.17
2019-03-31T02:31:28.335Z,43.37
2019-03-31T02:33:59.344Z,43.70
2019-03-31T02:36:30.356Z,43.73
2019-03-31T02:39:01.609Z,45.47
2019-03-31T02:41:32.964Z,42.10
2019-03-31T02:44:04.576Z,44.40
2019-03-31T02:46:35.997Z,45.40
2019-03-31T02:49:07.138Z,48.13
2019-03-31T02:51:38.301Z,45.33
2019-03-31T02:54:09.530Z,41.53
2019-03-31T02:56:41.411Z,46.03
2019-03-31T02:59:15.288Z,44.83
2019-03-31T03:01:48.129Z,43.77
2019-03-31T03:04:21.602Z,44.70
2019-03-31T03:06:55.073Z,45.60
2019-03-31T03:09:27.615Z,46.77
2019-03-31T03:12:00.126Z,49.53
2019-03-31T03:14:35.285Z,48.00
2019-03-31T03:17:06.109Z,48.47
2019-03-31T03:19:37.766Z,45.40
2019-03-31T03:22:08.780Z,49.20
2019-03-31T03:24:39.795Z,49.37
2019-03-31T03:27:10.921Z,46.10
2019-03-31T03:29:41.907Z,46.10
2019-03-31T03:32:13.255Z,50.83
2019-03-31T03:34:44.309Z,48.20
2019-03-31T03:37:15.451Z,53.93
2019-03-31T03:39:46.467Z,46.87
2019-03-31T03:42:17.382Z,45.63
2019-03-31T03:44:48.999Z,47.63
2019-03-31T03:47:19.775Z,47.57
2019-03-31T03:49:51.118Z,51.00
2019-03-31T03:52:22.208Z,52.97
2019-03-31T03:54:53.202Z,52.20
2019-03-31T03:57:24.694Z,53.17
2019-03-31T03:59:56.044Z,57.80
2019-03-31T04:02:26.752Z,59.43
2019-03-31T04:04:57.760Z,59.70
2019-03-31T04:07:28.787Z,58.67
2019-03-31T04:10:00.579Z,59.50
2019-03-31T04:12:32.379Z,59.40
2019-03-31T04:15:04.026Z,62.27
2019-03-31T04:17:35.124Z,60.10
2019-03-31T04:20:06.434Z,57.73
2019-03-31T04:22:37.441Z,56.23
2019-03-31T04:25:08.291Z,57.17
2019-03-31T04:27:39.850Z,55.43
2019-03-31T04:30:10.786Z,53.50
2019-03-31T04:32:41.513Z,53.07
2019-03-31T04:35:12.240Z,51.83
2019-03-31T04:37:43.320Z,55.07
2019-03-31T04:40:14.341Z,56.90
2019-03-31T04:42:45.431Z,54.80
2019-03-31T04:45:16.328Z,55.00
2019-03-31T04:47:47.580Z,56.33
2019-03-31T04:50:18.724Z,56.00
2019-03-31T04:52:50.033Z,58.40
2019-03-31T04:55:21.420Z,58.73
2019-03-31T04:57:52.831Z,56.80
2019-03-31T05:00:23.542Z,57.83
2019-03-31T05:02:54.889Z,57.27
2019-03-31T05:05:25.985Z,56.37
2019-03-31T05:07:57.338Z,55.43
2019-03-31T05:10:28.445Z,55.57
2019-03-31T05:13:00.184Z,57.57
2019-03-31T05:15:31.706Z,56.17
2019-03-31T05:18:03.043Z,57.13
2019-03-31T05:20:33.903Z,58.50
2019-03-31T05:23:04.649Z,60.83
2019-03-31T05:25:35.421Z,60.90
2019-03-31T05:28:07.411Z,61.20
2019-03-31T05:30:38.137Z,58.27
2019-03-31T05:33:09.169Z,62.27
2019-03-31T05:35:39.962Z,61.13
2019-03-31T05:38:10.856Z,62.97
2019-03-31T05:40:41.836Z,59.83
2019-03-31T05:43:13.251Z,61.40
2019-03-31T05:45:44.153Z,65.00
2019-03-31T05:48:15.284Z,68.20
2019-03-31T05:50:46.336Z,62.17
2019-03-31T05:53:17.160Z,62.40
2019-03-31T05:55:47.901Z,60.77
2019-03-31T05:58:18.644Z,63.50
2019-03-31T06:00:50.880Z,61.77
2019-03-31T06:03:22.027Z,61.73
2019-03-31T06:05:53.362Z,62.50
2019-03-31T06:08:24.104Z,65.80
2019-03-31T06:10:55.195Z,60.27
2019-03-31T06:13:26.072Z,61.27
2019-03-31T06:15:56.972Z,59.27
2019-03-31T06:18:27.731Z,57.73
2019-03-31T06:20:58.931Z,56.67
2019-03-31T06:23:29.850Z,59.20
2019-03-31T06:26:01.049Z,58.87
2019-03-31T06:28:32.741Z,58.50
2019-03-31T06:31:04.106Z,58.13
2019-03-31T06:33:35.228Z,60.57
2019-03-31T06:36:06.750Z,60.07
2019-03-31T06:38:37.779Z,61.90
2019-03-31T06:41:09.498Z,64.43
2019-03-31T06:43:40.497Z,64.23
2019-03-31T06:46:11.799Z,64.77
2019-03-31T06:48:43.618Z,67.40
2019-03-31T06:51:17.054Z,68.73
2019-03-31T06:53:48.193Z,62.17
2019-03-31T06:56:18.998Z,66.30
2019-03-31T06:58:49.716Z,68.70
2019-03-31T07:01:21.100Z,75.17
2019-03-31T07:03:51.992Z,71.07
2019-03-31T07:06:24.177Z,73.63
2019-03-31T07:08:54.994Z,71.83
2019-03-31T07:11:25.843Z,66.60
2019-03-31T07:13:56.892Z,66.80
2019-03-31T07:16:28.570Z,66.63
2019-03-31T07:19:00.353Z,67.47
2019-03-31T07:21:31.100Z,64.17
2019-03-31T07:24:02.487Z,61.30
2019-03-31T07:26:33.256Z,57.43
2019-03-31T07:29:04.440Z,57.87
2019-03-31T07:31:35.534Z,54.37
2019-03-31T07:34:06.367Z,59.77
2019-03-31T07:36:37.693Z,56.20
2019-03-31T07:39:09.271Z,54.10
2019-03-31T07:41:40.845Z,57.53
2019-03-31T07:44:15.383Z,54.67
2019-03-31T07:46:46.464Z,57.83
2019-03-31T07:49:17.509Z,59.87
2019-03-31T07:51:48.520Z,60.33
2019-03-31T07:54:19.596Z,55.70
2019-03-31T07:56:50.843Z,59.27
2019-03-31T07:59:21.630Z,60.90
2019-03-31T08:01:53.624Z,55.27
2019-03-31T08:04:25.081Z,55.40
2019-03-31T08:06:56.147Z,55.83
2019-03-31T08:09:26.893Z,49.50
2019-03-31T08:11:59.387Z,51.70
2019-03-31T08:14:31.401Z,49.07
2019-03-31T08:17:02.926Z,47.20
2019-03-31T08:19:34.808Z,46.50
2019-03-31T08:22:05.834Z,41.07
2019-03-31T08:24:46.179Z,43.83
2019-03-31T08:27:17.803Z,41.13
2019-03-31T08:29:59.902Z,40.87
2019-03-31T08:32:22.479Z,43.27
2019-03-31T08:34:53.605Z,38.50
2019-03-31T08:37:24.696Z,41.47
2019-03-31T08:39:57.042Z,40.90
2019-03-31T08:42:28.928Z,38.10
2019-03-31T08:45:00.372Z,40.53
2019-03-31T08:47:31.434Z,36.33
2019-03-31T08:50:02.841Z,38.50
2019-03-31T08:52:34.043Z,34.90
2019-03-31T08:55:06.083Z,34.87
2019-03-31T08:57:47.757Z,35.60
2019-03-31T09:00:28.746Z,34.40
2019-03-31T09:03:00.454Z,35.57
2019-03-31T09:05:33.633Z,35.33
2019-03-31T09:08:09.135Z,34.33
2019-03-31T09:10:41.116Z,35.10
2019-03-31T09:13:12.590Z,31.83
2019-03-31T09:15:43.785Z,26.47
2019-03-31T09:18:15.134Z,24.30
2019-03-31T09:20:46.630Z,24.70
2019-03-31T09:23:17.422Z,22.50
2019-03-31T09:25:48.627Z,22.33
2019-03-31T09:28:19.392Z,23.73
2019-03-31T09:30:50.433Z,23.33
2019-03-31T09:33:21.248Z,24.63
2019-03-31T09:35:52.400Z,24.57
2019-03-31T09:38:23.277Z,21.60
2019-03-31T09:40:54.817Z,19.53
2019-03-31T09:43:25.566Z,14.67
2019-03-31T09:45:56.717Z,15.80
2019-03-31T09:48:27.683Z,16.73
2019-03-31T09:50:58.657Z,16.70
2019-03-31T09:53:30.069Z,16.50
2019-03-31T09:56:02.072Z,15.90
2019-03-31T09:58:33.114Z,12.80
2019-03-31T10:01:07.930Z,14.70
2019-03-31T10:03:38.412Z,18.17
2019-03-31T10:06:10.969Z,18.50
2019-03-31T10:08:42.326Z,16.93
2019-03-31T10:11:13.751Z,17.43
2019-03-31T10:13:44.815Z,16.50
2019-03-31T10:16:15.654Z,15.03
2019-03-31T10:18:49.693Z,14.43
2019-03-31T10:21:20.503Z,12.60
2019-03-31T10:23:54.274Z,12.83
2019-03-31T10:26:31.736Z,12.50
2019-03-31T10:28:58.242Z,10.80
2019-03-31T10:31:30.506Z,10.20
2019-03-31T10:34:05.907Z,10.10
2019-03-31T10:36:44.497Z,9.07
2019-03-31T10:39:12.327Z,8.60
2019-03-31T10:41:46.320Z,8.33
2019-03-31T10:44:19.974Z,6.70
2019-03-31T10:46:51.492Z,6.57
2019-03-31T10:49:22.830Z,7.60
2019-03-31T10:51:54.488Z,6.87
2019-03-31T10:54:25.753Z,6.23
2019-03-31T10:56:56.776Z,5.53
2019-03-31T10:59:30.199Z,5.20
2019-03-31T11:02:10.461Z,6.17
2019-03-31T11:04:42.737Z,5.90
2019-03-31T11:07:15.632Z,7.67
2019-03-31T11:09:47.868Z,7.57
2019-03-31T11:13:18.186Z,7.63
2019-03-31T11:15:52.494Z,6.50
2019-03-31T11:18:23.873Z,6.17
2019-03-31T11:20:55.444Z,6.93
2019-03-31T11:23:28.197Z,7.03
2019-03-31T11:25:59.282Z,6.37
2019-03-31T11:28:30.397Z,6.23
2019-03-31T11:31:01.107Z,5.90
2019-03-31T11:33:31.856Z,5.37
2019-03-31T11:36:02.608Z,5.90
2019-03-31T11:38:34.218Z,5.20
2019-03-31T11:41:05.336Z,3.67
2019-03-31T11:43:36.538Z,4.50
2019-03-31T11:46:07.225Z,3.93
2019-03-31T11:48:37.949Z,3.90
2019-03-31T11:51:09.066Z,4.90
2019-03-31T11:53:40.301Z,4.00
2019-03-31T11:56:11.276Z,3.87
2019-03-31T11:58:41.959Z,4.23
2019-03-31T12:01:12.813Z,4.23
2019-03-31T12:03:43.504Z,4.10
2019-03-31T12:06:14.262Z,4.67
2019-03-31T12:08:44.932Z,5.17
2019-03-31T12:11:16.223Z,4.83
2019-03-31T12:13:46.884Z,5.87
2019-03-31T12:16:17.902Z,5.10
2019-03-31T12:18:48.560Z,5.57
2019-03-31T12:21:19.272Z,6.17
2019-03-31T12:23:49.957Z,6.00
2019-03-31T12:26:20.756Z,6.17
2019-03-31T12:28:51.457Z,7.13
2019-03-31T12:31:22.671Z,5.03
2019-03-31T12:33:53.403Z,5.23
2019-03-31T12:36:24.207Z,6.90
2019-03-31T12:38:54.924Z,6.50
2019-03-31T12:41:25.628Z,5.73
2019-03-31T12:43:56.294Z,6.53
2019-03-31T12:46:26.952Z,5.43
2019-03-31T12:48:58.141Z,5.50
2019-03-31T12:51:28.802Z,5.10
2019-03-31T12:53:59.498Z,5.17
2019-03-31T12:56:30.265Z,5.10
2019-03-31T12:59:00.971Z,5.67
2019-03-31T13:01:31.659Z,5.30
2019-03-31T13:04:02.653Z,4.83
2019-03-31T13:06:33.348Z,6.30
2019-03-31T13:09:05.702Z,5.53
2019-03-31T13:11:36.489Z,4.90
2019-03-31T13:14:07.217Z,4.93
2019-03-31T13:16:37.911Z,5.10
2019-03-31T13:19:09.066Z,4.40
2019-03-31T13:21:40.610Z,4.47
2019-03-31T13:24:11.305Z,4.60
2019-03-31T13:26:42.001Z,4.60
2019-03-31T13:29:12.747Z,4.50
2019-03-31T13:31:43.479Z,3.40
2019-03-31T13:34:15.548Z,4.03
2019-03-31T13:36:46.879Z,4.27
2019-03-31T13:39:17.718Z,3.60
2019-03-31T13:41:48.504Z,3.17
2019-03-31T13:44:19.216Z,3.13
2019-03-31T13:46:49.909Z,2.93
2019-03-31T13:49:20.608Z,3.03
2019-03-31T13:51:51.273Z,2.63
2019-03-31T13:54:22.229Z,2.37
2019-03-31T13:56:53.885Z,2.80
2019-03-31T13:59:25.295Z,2.40
2019-03-31T14:01:56.011Z,2.47
2019-03-31T14:04:26.707Z,1.97
2019-03-31T14:06:57.329Z,2.40
2019-03-31T14:09:28.391Z,2.60
2019-03-31T14:11:59.070Z,2.07
2019-03-31T14:14:30.120Z,1.93
2019-03-31T14:17:00.801Z,1.87
2019-03-31T14:19:31.486Z,1.87
2019-03-31T14:22:02.185Z,2.10
2019-03-31T14:24:33.152Z,1.70
2019-03-31T14:27:04.233Z,1.70
2019-03-31T14:29:34.896Z,2.13
2019-03-31T14:32:05.615Z,1.60
2019-03-31T14:34:36.618Z,2.33
2019-03-31T14:37:07.411Z,2.00
2019-03-31T14:39:38.700Z,1.60
2019-03-31T14:42:10.052Z,2.07
2019-03-31T14:44:40.881Z,1.87
2019-03-31T14:47:12.648Z,1.47
2019-03-31T14:49:43.692Z,1.50
2019-03-31T14:52:26.789Z,1.90
2019-03-31T14:54:46.941Z,1.50
2019-03-31T14:57:17.758Z,1.73
2019-03-31T14:59:48.592Z,1.60
2019-03-31T15:02:19.762Z,2.13
2019-03-31T15:04:50.893Z,2.20
2019-03-31T15:07:21.639Z,1.90
2019-03-31T15:09:52.385Z,2.10
2019-03-31T15:12:23.239Z,3.80
2019-03-31T15:14:54.373Z,2.70
2019-03-31T15:17:26.352Z,2.97
2019-03-31T15:19:57.310Z,2.10
2019-03-31T15:22:28.048Z,2.33
2019-03-31T15:24:58.776Z,2.43
2019-03-31T15:27:29.766Z,2.80
2019-03-31T15:30:00.545Z,1.73
2019-03-31T15:32:31.271Z,2.30
2019-03-31T15:35:02.424Z,1.70
2019-03-31T15:37:33.257Z,1.90
2019-03-31T15:40:04.400Z,2.13
2019-03-31T15:42:35.152Z,3.20
2019-03-31T15:45:06.489Z,2.40
2019-03-31T15:47:37.463Z,2.20
2019-03-31T15:50:09.352Z,1.73
2019-03-31T15:52:40.005Z,1.63
2019-03-31T15:55:11.267Z,1.73
2019-03-31T15:57:41.940Z,2.33
2019-03-31T16:00:15.137Z,1.90
2019-03-31T16:02:46.399Z,2.10
2019-03-31T16:05:17.687Z,1.50
2019-03-31T16:07:48.138Z,1.80
2019-03-31T16:10:18.583Z,1.73
2019-03-31T16:12:48.543Z,2.10
2019-03-31T16:15:18.913Z,2.13
2019-03-31T16:17:49.103Z,2.47
2019-03-31T16:20:19.273Z,2.80
2019-03-31T16:22:49.624Z,2.47
2019-03-31T16:25:24.945Z,1.40
2019-03-31T16:27:55.119Z,1.93
2019-03-31T16:30:25.174Z,1.93
2019-03-31T16:32:55.563Z,1.17
2019-03-31T16:35:25.927Z,1.73
2019-03-31T16:37:55.839Z,1.63
2019-03-31T16:40:25.729Z,1.80
2019-03-31T16:42:56.090Z,1.73
2019-03-31T16:45:25.987Z,2.07
2019-03-31T16:47:56.946Z,1.33
2019-03-31T16:50:26.776Z,1.70
2019-03-31T16:52:56.882Z,1.30
2019-03-31T16:55:26.753Z,1.50
2019-03-31T16:57:56.695Z,1.37
2019-03-31T17:00:26.689Z,1.50
2019-03-31T17:02:56.546Z,1.77
2019-03-31T17:05:27.041Z,2.00
2019-03-31T17:07:57.191Z,1.70
2019-03-31T17:10:27.341Z,1.93
2019-03-31T17:12:58.078Z,1.63
2019-03-31T17:15:28.167Z,1.97
2019-03-31T17:17:58.341Z,2.23
2019-03-31T17:20:28.359Z,1.70
2019-03-31T17:22:58.444Z,1.50
2019-03-31T17:25:28.608Z,2.00
2019-03-31T17:27:58.861Z,1.87
2019-03-31T17:30:28.839Z,2.23
2019-03-31T17:32:58.729Z,2.00
2019-03-31T17:35:28.948Z,1.70
2019-03-31T17:37:59.151Z,1.70
2019-03-31T17:40:29.617Z,1.10
2019-03-31T17:42:59.610Z,1.50
2019-03-31T17:45:30.802Z,1.47
2019-03-31T17:48:00.898Z,2.27
2019-03-31T17:50:30.816Z,1.10
2019-03-31T17:53:03.836Z,1.77
2019-03-31T17:55:33.018Z,1.73
2019-03-31T17:58:02.895Z,1.80
2019-03-31T18:00:32.763Z,2.00
2019-03-31T18:03:02.642Z,2.27
2019-03-31T18:05:32.536Z,2.00
2019-03-31T18:08:02.809Z,1.97
2019-03-31T18:10:32.632Z,1.57
2019-03-31T18:13:02.509Z,2.17
2019-03-31T18:15:32.382Z,2.03
2019-03-31T18:18:02.244Z,1.30
2019-03-31T18:20:32.133Z,1.60
2019-03-31T18:23:02.028Z,1.80
2019-03-31T18:25:31.939Z,2.33
2019-03-31T18:28:01.855Z,1.97
2019-03-31T18:30:31.752Z,1.57
2019-03-31T18:33:01.626Z,2.10
2019-03-31T18:35:31.442Z,2.90
2019-03-31T18:38:01.286Z,1.90
2019-03-31T18:40:35.174Z,3.53
2019-03-31T18:43:02.983Z,2.33
2019-03-31T18:45:32.891Z,1.87
2019-03-31T18:48:03.232Z,2.40
2019-03-31T18:50:33.097Z,2.03
2019-03-31T18:53:03.727Z,1.80
2019-03-31T18:55:51.533Z,2.43
2019-03-31T18:58:30.203Z,1.97
2019-03-31T19:01:25.032Z,3.10
2019-03-31T19:04:08.614Z,2.20
2019-03-31T19:06:43.995Z,1.80
2019-03-31T19:09:32.705Z,2.23
2019-03-31T19:12:20.433Z,2.30
2019-03-31T19:15:27.444Z,2.67
2019-03-31T19:18:13.450Z,2.03
2019-03-31T19:21:11.085Z,1.50
2019-03-31T19:23:46.983Z,3.00
2019-03-31T19:26:48.253Z,3.50
2019-03-31T19:29:33.628Z,4.00
2019-03-31T19:32:13.166Z,1.87
2019-03-31T19:35:01.331Z,1.90
2019-03-31T19:37:49.556Z,2.17
2019-03-31T19:40:28.759Z,1.80
2019-03-31T19:43:16.631Z,1.87
2019-03-31T19:46:05.698Z,1.77
2019-03-31T19:48:43.566Z,1.30
2019-03-31T19:51:31.498Z,2.20
2019-03-31T19:54:25.453Z,2.10
2019-03-31T19:57:20.771Z,1.80
2019-03-31T20:00:03.505Z,2.70
2019-03-31T20:02:58.139Z,2.00
2019-03-31T20:05:41.539Z,2.47
2019-03-31T20:08:35.542Z,2.03
2019-03-31T20:11:18.817Z,2.00
2019-03-31T20:14:05.924Z,2.37
2019-03-31T20:16:52.049Z,1.23
2019-03-31T20:19:29.129Z,2.00
2019-03-31T20:22:05.560Z,1.83
2019-03-31T20:24:52.920Z,1.70
2019-03-31T20:27:45.383Z,2.20
2019-03-31T20:30:29.192Z,1.93
2019-03-31T20:33:15.311Z,1.80
2019-03-31T20:35:58.559Z,2.43
2019-03-31T20:38:38.996Z,1.87
2019-03-31T20:41:17.913Z,2.03
2019-03-31T20:43:57.527Z,2.03
2019-03-31T20:46:27.705Z,2.10
2019-03-31T20:48:57.600Z,2.60
2019-03-31T20:51:27.532Z,1.90
2019-03-31T20:53:57.416Z,2.40
2019-03-31T20:56:27.315Z,2.70
2019-03-31T20:58:57.162Z,2.27
2019-03-31T21:01:27.026Z,2.53
2019-03-31T21:03:56.967Z,2.10
2019-03-31T21:06:26.854Z,2.33
2019-03-31T21:08:56.776Z,2.23
2019-03-31T21:11:26.645Z,2.17
2019-03-31T21:13:57.169Z,2.20
2019-03-31T21:16:27.739Z,2.20
2019-03-31T21:18:57.821Z,1.80
2019-03-31T21:21:27.959Z,2.50
2019-03-31T21:23:57.848Z,2.20
2019-03-31T21:26:27.737Z,2.20
2019-03-31T21:28:57.918Z,2.30
2019-03-31T21:31:28.123Z,3.30
2019-03-31T21:33:57.978Z,2.43
2019-03-31T21:36:28.203Z,2.23
2019-03-31T21:38:58.122Z,1.93
2019-03-31T21:41:28.003Z,3.23
2019-03-31T21:43:58.130Z,1.67
2019-03-31T21:46:29.023Z,2.27
2019-03-31T21:48:58.885Z,1.97
2019-03-31T21:51:28.733Z,2.23
2019-03-31T21:53:58.926Z,1.63
2019-03-31T21:56:28.821Z,2.27
2019-03-31T21:58:58.697Z,1.70
2019-03-31T22:01:28.582Z,2.20
2019-03-31T22:03:58.420Z,1.70
2019-03-31T22:06:28.687Z,1.93
2019-03-31T22:08:58.582Z,2.57
2019-03-31T22:11:28.413Z,1.77
2019-03-31T22:13:58.595Z,1.77
2019-03-31T22:16:28.462Z,2.00
2019-03-31T22:18:58.330Z,1.97
2019-03-31T22:21:28.222Z,1.97
2019-03-31T22:23:58.379Z,1.60
2019-03-31T22:26:28.595Z,1.57
2019-03-31T22:28:58.494Z,2.00
2019-03-31T22:31:28.406Z,2.43
2019-03-31T22:33:58.677Z,2.37
2019-03-31T22:36:28.751Z,2.43
2019-03-31T22:38:58.621Z,2.00
2019-03-31T22:41:28.839Z,1.77
2019-03-31T22:43:59.048Z,1.80
2019-03-31T22:46:28.905Z,2.10
2019-03-31T22:48:58.801Z,1.90
2019-03-31T22:51:28.970Z,2.50
2019-03-31T22:53:58.899Z,2.43
2019-03-31T22:56:28.813Z,1.87
2019-03-31T22:58:58.738Z,2.33
2019-03-31T23:01:28.649Z,2.00
2019-03-31T23:03:58.887Z,1.90
2019-03-31T23:06:28.796Z,2.40
2019-03-31T23:08:58.717Z,2.27
2019-03-31T23:11:28.567Z,1.63
2019-03-31T23:13:58.801Z,2.30
2019-03-31T23:16:28.643Z,2.07
2019-03-31T23:18:58.891Z,2.07
2019-03-31T23:21:28.742Z,2.20
2019-03-31T23:23:58.918Z,2.17
2019-03-31T23:26:29.097Z,2.40
2019-03-31T23:28:59.049Z,1.70
2019-03-31T23:31:29.240Z,2.17
2019-03-31T23:33:59.157Z,2.00
2019-03-31T23:36:29.023Z,1.70
2019-03-31T23:38:58.913Z,2.40
2019-03-31T23:41:28.775Z,2.70
2019-03-31T23:43:58.978Z,1.63
2019-03-31T23:46:29.181Z,2.47
2019-03-31T23:48:59.696Z,1.80
2019-03-31T23:51:29.638Z,2.27
2019-03-31T23:53:59.471Z,1.80
2019-03-31T23:56:29.614Z,1.57
2019-03-31T23:58:59.478Z,2.43
